createdAt,value
2023-03-25T00:18:23.159Z,20.0
2023-03-25T00:48:23.245Z,19.9
2023-03-25T01:18:23.212Z,19.8
2023-03-25T01:48:23.223Z,19.8
2023-03-25T02:18:23.225Z,19.7
2023-03-25T02:48:23.249Z,19.6
2023-03-25T03:18:23.230Z,19.6
2023-03-25T03:48:23.261Z,19.5
2023-03-25T04:18:23.250Z,19.5
2023-03-25T04:48:23.226Z,19.5
2023-03-25T05:18:23.252Z,19.4
2023-03-25T05:48:22.939Z,19.4
2023-03-25T06:18:23.220Z,19.6
2023-03-25T06:48:23.199Z,19.8
2023-03-25T07:18:23.219Z,20.0
2023-03-25T07:48:23.249Z,20.0
2023-03-25T08:18:22.952Z,20.0
2023-03-25T08:48:23.255Z,20.1
2023-03-25T09:18:23.222Z,20.1
2023-03-25T09:48:23.272Z,20.1
2023-03-25T10:18:23.238Z,20.1
2023-03-25T10:48:23.331Z,20.2
2023-03-25T11:18:23.238Z,20.2
2023-03-25T11:48:23.247Z,20.2
2023-03-25T12:18:23.214Z,20.2
2023-03-25T12:48:23.316Z,20.1
2023-03-25T13:18:23.201Z,20.2
2023-03-25T13:48:23.209Z,20.3
2023-03-25T14:18:23.176Z,20.3
2023-03-25T14:48:23.193Z,20.3
2023-03-25T15:18:23.171Z,20.3
2023-03-25T15:48:23.204Z,20.3
2023-03-25T16:18:23.198Z,20.3
2023-03-25T16:48:23.165Z,20.3
2023-03-25T17:18:23.189Z,20.3
2023-03-25T17:48:23.184Z,20.3
2023-03-25T18:18:23.194Z,20.2
2023-03-25T18:48:23.169Z,20.2
2023-03-25T19:18:23.188Z,20.3
2023-03-25T19:48:23.148Z,20.3
2023-03-25T20:18:23.154Z,20.3
2023-03-25T20:48:23.154Z,20.1
2023-03-25T21:18:22.956Z,20.1
2023-03-25T21:48:23.205Z,20.0
2023-03-25T22:18:23.123Z,19.9
2023-03-25T22:48:23.130Z,19.8
2023-03-25T23:18:23.132Z,19.7
2023-03-25T23:48:23.156Z,19.6
